Impacts METAR Board
IDs:

KORD - Chicago/O'Hare Intl, IL, US

Updated at: 1000 UTC 16 Aug 2018
Potential Impact None Slight Moderate High
Time 15/22Z 15/23Z 16/00Z 16/01Z 16/02Z 16/03Z 16/04Z 16/05Z 16/06Z 16/07Z 16/08Z 16/09Z 16/10Z
Temp83 83 79 78 77 75 74 74 73 72 73 73 73
Dewpt68 67 69 71 68 68 68 68 68 68 68 68 68
Altim29.88 29.89 29.90 29.91 29.92 29.93 29.93 29.93 29.92 29.91 29.92 29.92 29.92
VIS10 10 10 10 10 10 10 10 10 10 10 10 9
CIG65 200 55 27 33 170 20 18 140 190 190 26 20
CoverBKNBKNOVCOVCOVCOVCOVCOVCBKNBKNOVCOVCBKN
FltCatVFRVFRVFRMVFRVFRVFRMVFRMVFRVFRVFRVFRMVFRMVFR
WX----TSVCTS -RATS-RA--------------
WDir14001702202001801701701501300120120
WSpd7 5 7 4 8 8 5 4 3 3 0 3 3
WGst-- -- -- -- -- -- -- -- -- -- -- -- --
Raw hourly METARs
KORD 152151Z 14007KT 10SM SCT035 BKN065 BKN150 BKN250 28/20 A2988 RMK AO2 LTG DSNT W AND NW SLP112 T02830200
KORD 152251Z VRB05KT 10SM FEW035 SCT065 SCT100 BKN200 OVC250 28/19 A2989 RMK AO2 LTG DSNT NW SLP115 TCU DSNT SW T02830194
KORD 152351Z 17007KT 10SM TS SCT036CB SCT043 BKN055 OVC180 26/21 A2990 RMK AO2 LTG DSNT E AND SW AND W TSB04 SLP119 OCNL LTGICCG OHD TS OHD MOV N T02610206 10294 20261 53003
KORD 160051Z 22004KT 10SM VCTS -RA BKN027 BKN040 OVC070 26/22 A2991 RMK AO2 LTG DSNT W AND NW RAB25 TSE16 SLP123 P0001 T02560217
KORD 160151Z 20008KT 10SM TS FEW022 SCT028CB OVC033 25/20 A2992 RMK AO2 RAE0055 TSB14 SLP127 OCNL LTGICCG NW-N TS NW-N MOV N P0000 T02500200
KORD 160251Z 18008KT 10SM -RA SCT060 OVC170 24/20 A2993 RMK AO2 RAB45 TSE12 SLP128 P0000 60001 T02390200 51009
KORD 160403Z 17005KT 10SM BKN020 BKN060 OVC180 23/20 A2993 RMK AO2 T02330200
KORD 160451Z 17004KT 10SM BKN018 BKN140 OVC250 23/20 A2993 RMK AO2 SLP131 T02330200
KORD 160551Z 15003KT 10SM FEW017 BKN140 BKN250 23/20 A2992 RMK AO2 SLP128 60001 T02280200 10261 20228 402940228 58001
KORD 160651Z 13003KT 10SM FEW016 BKN190 BKN250 22/20 A2991 RMK AO2 SLP124 T02220200
KORD 160751Z 00000KT 10SM SCT016 BKN190 OVC250 23/20 A2992 RMK AO2 SLP127 T02280200
KORD 160851Z 12003KT 10SM SCT012 SCT018 OVC026 23/20 A2992 RMK AO2 SLP125 T02280200 56003
KORD 160951Z 12003KT 9SM FEW012 BKN020 23/20 A2992 RMK AO2 SLP125 T02280200



Page loaded:  10:28 UTC  |   03:28 AM Pacific  |   04:28 AM Mountain  |   05:28 AM Central  |   06:28 AM Eastern

 

ADVISORIES

FORECASTS

FORECASTS

OBSERVATIONS

USER TOOLS

ABOUT US